Sandy, OR (97055)

11:23 AM PST on December 09, 2016 (GMT -0800)
Sandy City Center | | Change Station

Elev 948 ft 45.40 °N, 122.27 °W | Updated 16 seconds ago

Mostly Cloudy
Mostly Cloudy
33.0 °F
Feels Like 33 °F
N
0.0
Wind Variable Wind from NW

Today
High -- | Low -- °F
--% Chance of Precip.
Yesterday
High -- | Low -- °F
Precip. -- in
Pressure 30.07 in
Visibility 1.8 miles
Clouds Overcast 1600 ft
Windchill 33 °F
Dew Point 32 °F
Humidity 98%
Rainfall 0.00 in
Snow Depth Not available.
7:37 AM 4:25 PM
Waxing Gibbous, 76% visible
SPECI KTTD 091909Z 08015G26KT 1 3/4SM -FZRA BR OVC016 00/M02 A3007 RMK AO2 PK WND 08026/1902 P0000 I1002 T00001017
Pressure 30.07 in
Visibility 1.8 miles
Clouds Overcast 1600 ft
Windchill 33 °F
Dew Point 32 °F
Humidity 98%
Rainfall 0.00 in
Snow Depth Not available.
7:37 AM 4:25 PM
Waxing Gibbous, 76% visible
SPECI KTTD 091909Z 08015G26KT 1 3/4SM -FZRA BR OVC016 00/M02 A3007 RMK AO2 PK WND 08026/1902 P0000 I1002 T00001017

10-Day Weather Forecast

Almanac

Astronomy

Dec. 09, 2016 Rise Set
Actual Time
Civil Twilight
Nautical Twilight
Astronomical Twilight
Moon
Length of Visible Light
Length of Day
Tomorrow will be .
, % of the Moon is Illuminated

Today's Extremes

State Highs State Lows

Community

WunderPhotos

Upload Photos

1,956,499 photos uploaded!

WunderBlog® & News

Nearby

Air Quality

  Air Quality AQ Index Pollutant
Not available.

Snow Depth

Station Depth Elevation

Earthquake Activity

City Distance Mag. Time & Date
Minimum magnitude displayed is 2.5.

Coastal Water Temperatures

Place Temperature

Stations

Nearby Weather Stations

Station Location Temp. Windchill Dew Point Humidity Wind Precip. Elev Updated Type
                   

Watches & Warnings

There are currently no watches in effect.